sensor_id;sensor_type;location;lat;lon;timestamp;P1;durP1;ratioP1;P2;durP2;ratioP2
68050;SDS011;54839;51.364;7.246;2022-08-01T00:00:27;16.90;;;13.40;;
68050;SDS011;54839;51.364;7.246;2022-08-01T00:02:53;13.43;;;12.03;;
68050;SDS011;54839;51.364;7.246;2022-08-01T00:05:18;11.10;;;10.10;;
68050;SDS011;54839;51.364;7.246;2022-08-01T00:07:44;13.43;;;12.07;;
68050;SDS011;54839;51.364;7.246;2022-08-01T00:10:12;14.77;;;13.47;;
68050;SDS011;54839;51.364;7.246;2022-08-01T00:12:39;12.93;;;11.73;;
68050;SDS011;54839;51.364;7.246;2022-08-01T00:15:05;15.57;;;13.70;;
68050;SDS011;54839;51.364;7.246;2022-08-01T00:17:32;15.80;;;14.20;;
68050;SDS011;54839;51.364;7.246;2022-08-01T00:19:58;16.30;;;14.60;;
68050;SDS011;54839;51.364;7.246;2022-08-01T00:22:24;16.70;;;15.10;;
68050;SDS011;54839;51.364;7.246;2022-08-01T00:24:50;18.53;;;16.63;;
68050;SDS011;54839;51.364;7.246;2022-08-01T00:27:16;20.10;;;18.40;;
68050;SDS011;54839;51.364;7.246;2022-08-01T00:29:42;15.67;;;14.27;;
68050;SDS011;54839;51.364;7.246;2022-08-01T00:32:07;19.73;;;18.03;;
68050;SDS011;54839;51.364;7.246;2022-08-01T00:34:33;18.00;;;16.30;;
68050;SDS011;54839;51.364;7.246;2022-08-01T00:36:59;22.70;;;20.43;;
68050;SDS011;54839;51.364;7.246;2022-08-01T00:39:24;23.87;;;19.40;;
68050;SDS011;54839;51.364;7.246;2022-08-01T00:41:50;22.90;;;20.70;;
68050;SDS011;54839;51.364;7.246;2022-08-01T00:44:16;22.37;;;19.97;;
68050;SDS011;54839;51.364;7.246;2022-08-01T00:46:41;22.57;;;20.37;;
68050;SDS011;54839;51.364;7.246;2022-08-01T00:49:07;30.37;;;24.03;;
68050;SDS011;54839;51.364;7.246;2022-08-01T00:51:33;29.73;;;24.80;;
68050;SDS011;54839;51.364;7.246;2022-08-01T00:53:59;32.33;;;24.50;;
68050;SDS011;54839;51.364;7.246;2022-08-01T00:56:25;30.80;;;27.50;;
68050;SDS011;54839;51.364;7.246;2022-08-01T00:58:53;34.47;;;30.60;;
68050;SDS011;54839;51.364;7.246;2022-08-01T01:01:20;32.07;;;28.67;;
68050;SDS011;54839;51.364;7.246;2022-08-01T01:03:50;35.07;;;31.30;;
68050;SDS011;54839;51.364;7.246;2022-08-01T01:11:32;35.23;;;31.63;;
68050;SDS011;54839;51.364;7.246;2022-08-01T01:14:10;35.13;;;31.40;;
68050;SDS011;54839;51.364;7.246;2022-08-01T01:16:51;39.50;;;35.40;;
68050;SDS011;54839;51.364;7.246;2022-08-01T01:19:20;36.47;;;32.57;;
68050;SDS011;54839;51.364;7.246;2022-08-01T01:24:48;37.20;;;33.50;;
68050;SDS011;54839;51.364;7.246;2022-08-01T01:30:07;40.67;;;33.27;;
68050;SDS011;54839;51.364;7.246;2022-08-01T01:32:41;40.83;;;36.23;;
68050;SDS011;54839;51.364;7.246;2022-08-01T01:35:15;37.17;;;33.37;;
68050;SDS011;54839;51.364;7.246;2022-08-01T01:37:46;38.30;;;34.53;;
68050;SDS011;54839;51.364;7.246;2022-08-01T01:40:14;39.00;;;34.77;;
68050;SDS011;54839;51.364;7.246;2022-08-01T01:42:43;44.53;;;34.10;;
68050;SDS011;54839;51.364;7.246;2022-08-01T01:45:09;36.10;;;32.73;;
68050;SDS011;54839;51.364;7.246;2022-08-01T01:47:35;34.73;;;31.07;;
68050;SDS011;54839;51.364;7.246;2022-08-01T01:50:03;37.27;;;33.40;;
68050;SDS011;54839;51.364;7.246;2022-08-01T01:52:31;38.33;;;34.20;;
68050;SDS011;54839;51.364;7.246;2022-08-01T01:54:57;39.43;;;35.40;;
68050;SDS011;54839;51.364;7.246;2022-08-01T01:57:24;38.40;;;34.17;;
68050;SDS011;54839;51.364;7.246;2022-08-01T01:59:55;37.50;;;33.60;;
68050;SDS011;54839;51.364;7.246;2022-08-01T02:02:24;43.83;;;38.60;;
68050;SDS011;54839;51.364;7.246;2022-08-01T02:04:50;41.87;;;37.37;;
68050;SDS011;54839;51.364;7.246;2022-08-01T02:07:20;46.77;;;37.70;;
68050;SDS011;54839;51.364;7.246;2022-08-01T02:09:49;51.20;;;39.17;;
68050;SDS011;54839;51.364;7.246;2022-08-01T02:12:16;44.83;;;40.27;;
68050;SDS011;54839;51.364;7.246;2022-08-01T02:14:44;42.83;;;37.30;;
68050;SDS011;54839;51.364;7.246;2022-08-01T02:17:12;41.37;;;36.63;;
68050;SDS011;54839;51.364;7.246;2022-08-01T02:19:42;43.67;;;38.93;;
68050;SDS011;54839;51.364;7.246;2022-08-01T02:22:10;43.30;;;38.80;;
68050;SDS011;54839;51.364;7.246;2022-08-01T02:24:49;47.20;;;37.63;;
68050;SDS011;54839;51.364;7.246;2022-08-01T02:27:30;42.13;;;37.17;;
68050;SDS011;54839;51.364;7.246;2022-08-01T02:30:05;51.40;;;43.73;;
68050;SDS011;54839;51.364;7.246;2022-08-01T02:35:05;48.57;;;43.40;;
68050;SDS011;54839;51.364;7.246;2022-08-01T02:37:36;48.33;;;43.20;;
68050;SDS011;54839;51.364;7.246;2022-08-01T02:40:04;46.40;;;39.03;;
68050;SDS011;54839;51.364;7.246;2022-08-01T02:42:32;42.03;;;36.60;;
68050;SDS011;54839;51.364;7.246;2022-08-01T02:45:01;45.17;;;40.13;;
68050;SDS011;54839;51.364;7.246;2022-08-01T02:47:29;45.03;;;37.90;;
68050;SDS011;54839;51.364;7.246;2022-08-01T02:49:56;42.93;;;38.40;;
68050;SDS011;54839;51.364;7.246;2022-08-01T02:52:25;45.20;;;37.33;;
68050;SDS011;54839;51.364;7.246;2022-08-01T02:54:54;49.50;;;38.50;;
68050;SDS011;54839;51.364;7.246;2022-08-01T02:57:21;41.83;;;36.40;;
68050;SDS011;54839;51.364;7.246;2022-08-01T02:59:48;44.57;;;39.50;;
68050;SDS011;54839;51.364;7.246;2022-08-01T03:02:15;44.00;;;39.17;;
68050;SDS011;54839;51.364;7.246;2022-08-01T03:04:42;43.73;;;37.73;;
68050;SDS011;54839;51.364;7.246;2022-08-01T03:07:10;45.77;;;40.23;;
68050;SDS011;54839;51.364;7.246;2022-08-01T03:09:38;43.93;;;39.53;;
68050;SDS011;54839;51.364;7.246;2022-08-01T03:12:11;45.97;;;39.57;;
68050;SDS011;54839;51.364;7.246;2022-08-01T03:14:42;51.60;;;40.60;;
68050;SDS011;54839;51.364;7.246;2022-08-01T03:17:09;45.60;;;40.33;;
68050;SDS011;54839;51.364;7.246;2022-08-01T03:19:36;44.87;;;40.10;;
68050;SDS011;54839;51.364;7.246;2022-08-01T03:22:05;45.07;;;38.00;;
68050;SDS011;54839;51.364;7.246;2022-08-01T03:24:34;42.23;;;37.73;;
68050;SDS011;54839;51.364;7.246;2022-08-01T03:27:02;44.97;;;37.03;;
68050;SDS011;54839;51.364;7.246;2022-08-01T03:29:28;49.13;;;41.33;;
68050;SDS011;54839;51.364;7.246;2022-08-01T03:31:56;41.30;;;35.47;;
68050;SDS011;54839;51.364;7.246;2022-08-01T03:34:23;45.33;;;38.00;;
68050;SDS011;54839;51.364;7.246;2022-08-01T03:36:49;48.70;;;39.20;;
68050;SDS011;54839;51.364;7.246;2022-08-01T03:39:22;51.87;;;39.07;;
68050;SDS011;54839;51.364;7.246;2022-08-01T03:41:54;39.63;;;34.70;;
68050;SDS011;54839;51.364;7.246;2022-08-01T03:44:25;48.63;;;40.30;;
68050;SDS011;54839;51.364;7.246;2022-08-01T03:46:56;45.70;;;37.77;;
68050;SDS011;54839;51.364;7.246;2022-08-01T03:49:29;49.57;;;37.70;;
68050;SDS011;54839;51.364;7.246;2022-08-01T03:51:56;48.43;;;38.60;;
68050;SDS011;54839;51.364;7.246;2022-08-01T03:54:23;47.97;;;37.30;;
68050;SDS011;54839;51.364;7.246;2022-08-01T03:56:52;47.57;;;37.00;;
68050;SDS011;54839;51.364;7.246;2022-08-01T03:59:18;43.47;;;35.77;;
68050;SDS011;54839;51.364;7.246;2022-08-01T04:01:45;48.10;;;40.70;;
68050;SDS011;54839;51.364;7.246;2022-08-01T04:04:12;47.73;;;38.47;;
68050;SDS011;54839;51.364;7.246;2022-08-01T04:06:39;43.13;;;36.77;;
68050;SDS011;54839;51.364;7.246;2022-08-01T04:09:08;40.77;;;35.53;;
68050;SDS011;54839;51.364;7.246;2022-08-01T04:11:35;42.13;;;37.50;;
68050;SDS011;54839;51.364;7.246;2022-08-01T04:14:00;48.07;;;40.40;;
68050;SDS011;54839;51.364;7.246;2022-08-01T04:16:26;45.50;;;36.90;;
68050;SDS011;54839;51.364;7.246;2022-08-01T04:18:52;49.10;;;34.50;;
68050;SDS011;54839;51.364;7.246;2022-08-01T04:21:18;41.30;;;35.67;;
68050;SDS011;54839;51.364;7.246;2022-08-01T04:23:47;39.97;;;35.67;;
68050;SDS011;54839;51.364;7.246;2022-08-01T04:26:16;39.80;;;35.70;;
68050;SDS011;54839;51.364;7.246;2022-08-01T04:28:43;44.67;;;38.50;;
68050;SDS011;54839;51.364;7.246;2022-08-01T04:31:09;45.30;;;37.33;;
68050;SDS011;54839;51.364;7.246;2022-08-01T04:33:38;45.80;;;39.50;;
68050;SDS011;54839;51.364;7.246;2022-08-01T04:36:07;45.93;;;37.77;;
68050;SDS011;54839;51.364;7.246;2022-08-01T04:38:35;39.23;;;34.90;;
68050;SDS011;54839;51.364;7.246;2022-08-01T04:41:02;45.07;;;35.10;;
68050;SDS011;54839;51.364;7.246;2022-08-01T04:43:31;43.43;;;37.13;;
68050;SDS011;54839;51.364;7.246;2022-08-01T04:45:57;47.67;;;40.07;;
68050;SDS011;54839;51.364;7.246;2022-08-01T04:48:24;44.53;;;36.00;;
68050;SDS011;54839;51.364;7.246;2022-08-01T04:50:51;46.83;;;39.80;;
68050;SDS011;54839;51.364;7.246;2022-08-01T04:53:17;48.20;;;38.60;;
68050;SDS011;54839;51.364;7.246;2022-08-01T04:55:45;56.67;;;40.80;;
68050;SDS011;54839;51.364;7.246;2022-08-01T04:58:11;43.73;;;38.30;;
68050;SDS011;54839;51.364;7.246;2022-08-01T05:00:37;44.00;;;39.30;;
68050;SDS011;54839;51.364;7.246;2022-08-01T05:03:03;43.07;;;36.40;;
68050;SDS011;54839;51.364;7.246;2022-08-01T05:05:28;44.97;;;38.77;;
68050;SDS011;54839;51.364;7.246;2022-08-01T05:07:55;42.30;;;37.50;;
68050;SDS011;54839;51.364;7.246;2022-08-01T05:10:21;42.17;;;37.63;;
68050;SDS011;54839;51.364;7.246;2022-08-01T05:12:47;43.97;;;39.17;;
68050;SDS011;54839;51.364;7.246;2022-08-01T05:15:12;47.53;;;37.87;;
68050;SDS011;54839;51.364;7.246;2022-08-01T05:17:38;42.80;;;38.10;;
68050;SDS011;54839;51.364;7.246;2022-08-01T05:20:04;39.53;;;35.40;;
68050;SDS011;54839;51.364;7.246;2022-08-01T05:22:31;46.00;;;36.77;;
68050;SDS011;54839;51.364;7.246;2022-08-01T05:24:57;40.00;;;34.53;;
68050;SDS011;54839;51.364;7.246;2022-08-01T05:27:24;41.13;;;36.77;;
68050;SDS011;54839;51.364;7.246;2022-08-01T05:29:50;46.00;;;39.57;;
68050;SDS011;54839;51.364;7.246;2022-08-01T05:32:15;39.37;;;35.20;;
68050;SDS011;54839;51.364;7.246;2022-08-01T05:34:41;41.40;;;33.90;;
68050;SDS011;54839;51.364;7.246;2022-08-01T05:37:07;42.77;;;34.50;;
68050;SDS011;54839;51.364;7.246;2022-08-01T05:39:33;39.40;;;35.10;;
68050;SDS011;54839;51.364;7.246;2022-08-01T05:41:59;45.87;;;36.80;;
68050;SDS011;54839;51.364;7.246;2022-08-01T05:44:24;45.93;;;36.50;;
68050;SDS011;54839;51.364;7.246;2022-08-01T05:46:50;40.17;;;35.67;;
68050;SDS011;54839;51.364;7.246;2022-08-01T05:49:16;37.57;;;33.53;;
68050;SDS011;54839;51.364;7.246;2022-08-01T05:51:42;37.27;;;33.33;;
68050;SDS011;54839;51.364;7.246;2022-08-01T05:54:07;38.07;;;31.87;;
68050;SDS011;54839;51.364;7.246;2022-08-01T05:56:33;34.90;;;31.50;;
68050;SDS011;54839;51.364;7.246;2022-08-01T05:58:58;36.93;;;32.20;;
68050;SDS011;54839;51.364;7.246;2022-08-01T06:01:24;36.53;;;31.87;;
68050;SDS011;54839;51.364;7.246;2022-08-01T06:03:50;34.40;;;30.77;;
68050;SDS011;54839;51.364;7.246;2022-08-01T06:06:17;33.23;;;28.20;;
68050;SDS011;54839;51.364;7.246;2022-08-01T06:08:43;31.37;;;24.97;;
68050;SDS011;54839;51.364;7.246;2022-08-01T06:11:08;26.50;;;23.67;;
68050;SDS011;54839;51.364;7.246;2022-08-01T06:13:34;28.43;;;23.90;;
68050;SDS011;54839;51.364;7.246;2022-08-01T06:16:00;28.63;;;25.50;;
68050;SDS011;54839;51.364;7.246;2022-08-01T06:18:25;28.73;;;25.73;;
68050;SDS011;54839;51.364;7.246;2022-08-01T06:20:51;28.30;;;22.77;;
68050;SDS011;54839;51.364;7.246;2022-08-01T06:23:17;28.03;;;24.33;;
68050;SDS011;54839;51.364;7.246;2022-08-01T06:25:42;26.43;;;21.87;;
68050;SDS011;54839;51.364;7.246;2022-08-01T06:28:08;23.30;;;21.00;;
68050;SDS011;54839;51.364;7.246;2022-08-01T06:30:34;21.93;;;19.63;;
68050;SDS011;54839;51.364;7.246;2022-08-01T06:33:00;21.77;;;19.30;;
68050;SDS011;54839;51.364;7.246;2022-08-01T06:35:26;21.60;;;19.40;;
68050;SDS011;54839;51.364;7.246;2022-08-01T06:37:54;23.60;;;20.47;;
68050;SDS011;54839;51.364;7.246;2022-08-01T06:40:20;20.53;;;18.43;;
68050;SDS011;54839;51.364;7.246;2022-08-01T06:42:46;21.77;;;19.30;;
68050;SDS011;54839;51.364;7.246;2022-08-01T06:45:12;19.40;;;17.30;;
68050;SDS011;54839;51.364;7.246;2022-08-01T06:47:38;20.23;;;17.37;;
68050;SDS011;54839;51.364;7.246;2022-08-01T06:50:05;18.10;;;16.40;;
68050;SDS011;54839;51.364;7.246;2022-08-01T06:52:32;16.83;;;15.20;;
68050;SDS011;54839;51.364;7.246;2022-08-01T06:54:59;19.33;;;17.17;;
68050;SDS011;54839;51.364;7.246;2022-08-01T06:57:25;18.60;;;16.80;;
68050;SDS011;54839;51.364;7.246;2022-08-01T06:59:50;17.53;;;15.30;;
68050;SDS011;54839;51.364;7.246;2022-08-01T07:02:16;17.90;;;16.07;;
68050;SDS011;54839;51.364;7.246;2022-08-01T07:04:42;16.90;;;14.90;;
68050;SDS011;54839;51.364;7.246;2022-08-01T07:07:08;18.37;;;16.40;;
68050;SDS011;54839;51.364;7.246;2022-08-01T07:09:33;18.07;;;16.27;;
68050;SDS011;54839;51.364;7.246;2022-08-01T07:11:59;17.27;;;15.60;;
68050;SDS011;54839;51.364;7.246;2022-08-01T07:14:25;18.57;;;16.30;;
68050;SDS011;54839;51.364;7.246;2022-08-01T07:16:50;18.33;;;16.47;;
68050;SDS011;54839;51.364;7.246;2022-08-01T07:19:17;20.40;;;18.30;;
68050;SDS011;54839;51.364;7.246;2022-08-01T07:21:43;20.63;;;18.20;;
68050;SDS011;54839;51.364;7.246;2022-08-01T07:24:09;19.87;;;17.90;;
68050;SDS011;54839;51.364;7.246;2022-08-01T07:26:36;19.77;;;18.00;;
68050;SDS011;54839;51.364;7.246;2022-08-01T07:29:01;19.40;;;17.40;;
68050;SDS011;54839;51.364;7.246;2022-08-01T07:31:27;18.80;;;16.70;;
68050;SDS011;54839;51.364;7.246;2022-08-01T07:33:53;15.93;;;14.33;;
68050;SDS011;54839;51.364;7.246;2022-08-01T07:36:19;14.07;;;12.47;;
68050;SDS011;54839;51.364;7.246;2022-08-01T07:38:45;13.67;;;12.37;;
68050;SDS011;54839;51.364;7.246;2022-08-01T07:41:11;13.67;;;12.37;;
68050;SDS011;54839;51.364;7.246;2022-08-01T07:43:37;12.90;;;11.60;;
68050;SDS011;54839;51.364;7.246;2022-08-01T07:46:03;12.77;;;11.47;;
68050;SDS011;54839;51.364;7.246;2022-08-01T07:48:29;11.27;;;10.37;;
68050;SDS011;54839;51.364;7.246;2022-08-01T07:50:55;10.17;;;9.20;;
68050;SDS011;54839;51.364;7.246;2022-08-01T07:53:20;8.30;;;7.50;;
68050;SDS011;54839;51.364;7.246;2022-08-01T07:55:46;6.77;;;6.17;;
68050;SDS011;54839;51.364;7.246;2022-08-01T07:58:13;7.07;;;6.47;;
68050;SDS011;54839;51.364;7.246;2022-08-01T08:00:38;7.57;;;5.87;;
68050;SDS011;54839;51.364;7.246;2022-08-01T08:03:04;5.63;;;5.20;;
68050;SDS011;54839;51.364;7.246;2022-08-01T08:05:30;6.17;;;5.57;;
68050;SDS011;54839;51.364;7.246;2022-08-01T08:07:57;5.83;;;5.37;;
68050;SDS011;54839;51.364;7.246;2022-08-01T08:10:22;5.57;;;5.10;;
68050;SDS011;54839;51.364;7.246;2022-08-01T08:12:48;6.10;;;4.90;;
68050;SDS011;54839;51.364;7.246;2022-08-01T08:15:14;4.43;;;4.03;;
68050;SDS011;54839;51.364;7.246;2022-08-01T08:17:40;4.70;;;4.20;;
68050;SDS011;54839;51.364;7.246;2022-08-01T08:20:06;4.30;;;3.93;;
68050;SDS011;54839;51.364;7.246;2022-08-01T08:22:33;5.30;;;4.90;;
68050;SDS011;54839;51.364;7.246;2022-08-01T08:24:59;5.10;;;4.03;;
68050;SDS011;54839;51.364;7.246;2022-08-01T08:27:25;4.03;;;3.73;;
68050;SDS011;54839;51.364;7.246;2022-08-01T08:29:51;5.03;;;3.77;;
68050;SDS011;54839;51.364;7.246;2022-08-01T08:32:17;3.93;;;3.63;;
68050;SDS011;54839;51.364;7.246;2022-08-01T08:34:42;3.80;;;3.50;;
68050;SDS011;54839;51.364;7.246;2022-08-01T08:37:08;3.10;;;2.83;;
68050;SDS011;54839;51.364;7.246;2022-08-01T08:39:34;2.90;;;2.70;;
68050;SDS011;54839;51.364;7.246;2022-08-01T08:42:00;4.03;;;3.73;;
68050;SDS011;54839;51.364;7.246;2022-08-01T08:44:27;4.50;;;4.07;;
68050;SDS011;54839;51.364;7.246;2022-08-01T08:46:52;4.07;;;3.67;;
68050;SDS011;54839;51.364;7.246;2022-08-01T08:49:24;4.47;;;4.07;;
68050;SDS011;54839;51.364;7.246;2022-08-01T08:51:52;6.00;;;5.40;;
68050;SDS011;54839;51.364;7.246;2022-08-01T08:54:22;4.10;;;3.80;;
68050;SDS011;54839;51.364;7.246;2022-08-01T08:56:49;5.33;;;4.93;;
68050;SDS011;54839;51.364;7.246;2022-08-01T08:59:16;6.00;;;5.50;;
68050;SDS011;54839;51.364;7.246;2022-08-01T09:01:42;5.03;;;4.63;;
68050;SDS011;54839;51.364;7.246;2022-08-01T09:04:09;4.80;;;4.50;;
68050;SDS011;54839;51.364;7.246;2022-08-01T09:06:35;9.27;;;4.30;;
68050;SDS011;54839;51.364;7.246;2022-08-01T09:09:01;5.17;;;4.77;;
68050;SDS011;54839;51.364;7.246;2022-08-01T09:11:27;4.20;;;3.87;;
68050;SDS011;54839;51.364;7.246;2022-08-01T09:16:28;3.70;;;3.50;;
68050;SDS011;54839;51.364;7.246;2022-08-01T09:18:54;4.20;;;3.90;;
68050;SDS011;54839;51.364;7.246;2022-08-01T09:21:36;4.00;;;3.70;;
68050;SDS011;54839;51.364;7.246;2022-08-01T09:24:02;4.63;;;3.60;;
68050;SDS011;54839;51.364;7.246;2022-08-01T09:26:33;6.17;;;5.00;;
68050;SDS011;54839;51.364;7.246;2022-08-01T09:29:07;5.60;;;3.80;;
68050;SDS011;54839;51.364;7.246;2022-08-01T09:31:42;4.40;;;4.03;;
68050;SDS011;54839;51.364;7.246;2022-08-01T09:34:08;3.80;;;3.50;;
68050;SDS011;54839;51.364;7.246;2022-08-01T09:39:16;4.23;;;3.87;;
68050;SDS011;54839;51.364;7.246;2022-08-01T09:41:44;3.80;;;3.50;;
68050;SDS011;54839;51.364;7.246;2022-08-01T09:44:10;4.67;;;4.23;;
68050;SDS011;54839;51.364;7.246;2022-08-01T09:46:43;3.53;;;3.23;;
68050;SDS011;54839;51.364;7.246;2022-08-01T09:49:14;4.33;;;3.53;;
68050;SDS011;54839;51.364;7.246;2022-08-01T09:51:51;4.63;;;4.20;;
68050;SDS011;54839;51.364;7.246;2022-08-01T09:54:17;4.47;;;3.40;;
68050;SDS011;54839;51.364;7.246;2022-08-01T09:57:16;9.30;;;4.37;;
68050;SDS011;54839;51.364;7.246;2022-08-01T09:59:45;4.07;;;3.77;;
68050;SDS011;54839;51.364;7.246;2022-08-01T10:02:12;4.00;;;3.70;;
68050;SDS011;54839;51.364;7.246;2022-08-01T10:04:49;3.30;;;3.10;;
68050;SDS011;54839;51.364;7.246;2022-08-01T10:07:17;3.43;;;3.13;;
68050;SDS011;54839;51.364;7.246;2022-08-01T10:09:43;3.90;;;3.60;;
68050;SDS011;54839;51.364;7.246;2022-08-01T10:12:10;3.40;;;3.10;;
68050;SDS011;54839;51.364;7.246;2022-08-01T10:14:38;3.17;;;2.87;;
68050;SDS011;54839;51.364;7.246;2022-08-01T10:17:06;3.20;;;2.90;;
68050;SDS011;54839;51.364;7.246;2022-08-01T10:19:34;4.10;;;3.70;;
68050;SDS011;54839;51.364;7.246;2022-08-01T10:22:02;2.90;;;2.70;;
68050;SDS011;54839;51.364;7.246;2022-08-01T10:24:34;2.90;;;2.70;;
68050;SDS011;54839;51.364;7.246;2022-08-01T10:27:03;4.07;;;3.37;;
68050;SDS011;54839;51.364;7.246;2022-08-01T10:29:41;3.50;;;3.10;;
68050;SDS011;54839;51.364;7.246;2022-08-01T10:32:10;3.60;;;3.40;;
68050;SDS011;54839;51.364;7.246;2022-08-01T10:34:36;2.47;;;2.33;;
68050;SDS011;54839;51.364;7.246;2022-08-01T10:37:03;2.60;;;2.10;;
68050;SDS011;54839;51.364;7.246;2022-08-01T10:39:30;2.17;;;1.97;;
68050;SDS011;54839;51.364;7.246;2022-08-01T10:41:57;2.30;;;2.10;;
68050;SDS011;54839;51.364;7.246;2022-08-01T10:44:24;4.50;;;2.67;;
68050;SDS011;54839;51.364;7.246;2022-08-01T10:46:52;2.17;;;2.07;;
68050;SDS011;54839;51.364;7.246;2022-08-01T10:49:28;6.47;;;2.77;;
68050;SDS011;54839;51.364;7.246;2022-08-01T10:51:57;2.40;;;1.97;;
68050;SDS011;54839;51.364;7.246;2022-08-01T10:54:26;2.30;;;2.20;;
68050;SDS011;54839;51.364;7.246;2022-08-01T10:56:52;5.17;;;4.70;;
68050;SDS011;54839;51.364;7.246;2022-08-01T10:59:22;2.73;;;2.43;;
68050;SDS011;54839;51.364;7.246;2022-08-01T11:01:56;1.80;;;1.70;;
68050;SDS011;54839;51.364;7.246;2022-08-01T11:07:38;3.17;;;2.87;;
68050;SDS011;54839;51.364;7.246;2022-08-01T11:10:19;4.80;;;4.40;;
68050;SDS011;54839;51.364;7.246;2022-08-01T11:12:56;3.90;;;3.60;;
68050;SDS011;54839;51.364;7.246;2022-08-01T11:15:22;3.70;;;3.50;;
68050;SDS011;54839;51.364;7.246;2022-08-01T11:17:52;4.37;;;3.93;;
68050;SDS011;54839;51.364;7.246;2022-08-01T11:20:29;4.00;;;3.70;;
68050;SDS011;54839;51.364;7.246;2022-08-01T11:30:51;4.60;;;2.93;;
68050;SDS011;54839;51.364;7.246;2022-08-01T11:33:47;2.83;;;2.63;;
68050;SDS011;54839;51.364;7.246;2022-08-01T11:38:39;1.57;;;1.43;;
68050;SDS011;54839;51.364;7.246;2022-08-01T11:52:14;2.13;;;2.03;;
68050;SDS011;54839;51.364;7.246;2022-08-01T11:54:52;2.23;;;2.13;;
68050;SDS011;54839;51.364;7.246;2022-08-01T11:59:47;2.23;;;2.13;;
68050;SDS011;54839;51.364;7.246;2022-08-01T12:02:18;2.10;;;2.00;;
68050;SDS011;54839;51.364;7.246;2022-08-01T12:04:47;2.30;;;1.90;;
68050;SDS011;54839;51.364;7.246;2022-08-01T12:07:18;2.33;;;2.23;;
68050;SDS011;54839;51.364;7.246;2022-08-01T12:09:44;3.10;;;2.20;;
68050;SDS011;54839;51.364;7.246;2022-08-01T12:12:12;1.17;;;1.10;;
68050;SDS011;54839;51.364;7.246;2022-08-01T12:14:42;1.97;;;1.03;;
68050;SDS011;54839;51.364;7.246;2022-08-01T12:17:08;2.17;;;0.90;;
68050;SDS011;54839;51.364;7.246;2022-08-01T12:19:33;1.60;;;1.30;;
68050;SDS011;54839;51.364;7.246;2022-08-01T12:22:04;1.57;;;1.47;;
68050;SDS011;54839;51.364;7.246;2022-08-01T12:24:38;1.50;;;1.40;;
68050;SDS011;54839;51.364;7.246;2022-08-01T12:27:05;1.67;;;1.57;;
68050;SDS011;54839;51.364;7.246;2022-08-01T12:29:33;1.57;;;1.20;;
68050;SDS011;54839;51.364;7.246;2022-08-01T12:32:01;1.17;;;1.17;;
68050;SDS011;54839;51.364;7.246;2022-08-01T12:34:28;2.20;;;1.30;;
68050;SDS011;54839;51.364;7.246;2022-08-01T12:36:57;1.93;;;1.73;;
68050;SDS011;54839;51.364;7.246;2022-08-01T12:39:33;1.57;;;1.47;;
68050;SDS011;54839;51.364;7.246;2022-08-01T12:42:00;1.30;;;1.20;;
68050;SDS011;54839;51.364;7.246;2022-08-01T12:44:29;1.50;;;1.40;;
68050;SDS011;54839;51.364;7.246;2022-08-01T12:46:56;2.00;;;1.80;;
68050;SDS011;54839;51.364;7.246;2022-08-01T12:49:22;1.40;;;1.20;;
68050;SDS011;54839;51.364;7.246;2022-08-01T12:51:49;1.30;;;1.20;;
68050;SDS011;54839;51.364;7.246;2022-08-01T12:54:15;1.17;;;1.07;;
68050;SDS011;54839;51.364;7.246;2022-08-01T12:56:41;1.40;;;1.30;;
68050;SDS011;54839;51.364;7.246;2022-08-01T12:59:28;2.87;;;1.63;;
68050;SDS011;54839;51.364;7.246;2022-08-01T13:01:56;1.53;;;1.40;;
68050;SDS011;54839;51.364;7.246;2022-08-01T13:04:33;1.30;;;1.30;;
68050;SDS011;54839;51.364;7.246;2022-08-01T13:07:16;1.20;;;1.10;;
68050;SDS011;54839;51.364;7.246;2022-08-01T13:09:51;1.20;;;1.13;;
68050;SDS011;54839;51.364;7.246;2022-08-01T13:12:16;2.43;;;0.97;;
68050;SDS011;54839;51.364;7.246;2022-08-01T13:14:42;2.33;;;1.60;;
68050;SDS011;54839;51.364;7.246;2022-08-01T13:17:08;1.70;;;1.60;;
68050;SDS011;54839;51.364;7.246;2022-08-01T13:19:45;1.77;;;1.40;;
68050;SDS011;54839;51.364;7.246;2022-08-01T13:22:12;1.30;;;1.20;;
68050;SDS011;54839;51.364;7.246;2022-08-01T13:24:38;1.50;;;1.40;;
68050;SDS011;54839;51.364;7.246;2022-08-01T13:27:04;2.30;;;1.57;;
68050;SDS011;54839;51.364;7.246;2022-08-01T13:29:44;1.87;;;1.30;;
68050;SDS011;54839;51.364;7.246;2022-08-01T13:32:12;1.43;;;1.07;;
68050;SDS011;54839;51.364;7.246;2022-08-01T13:34:42;1.90;;;1.60;;
68050;SDS011;54839;51.364;7.246;2022-08-01T13:37:08;1.00;;;1.00;;
68050;SDS011;54839;51.364;7.246;2022-08-01T13:39:45;1.57;;;1.00;;
68050;SDS011;54839;51.364;7.246;2022-08-01T13:42:15;4.50;;;0.70;;
68050;SDS011;54839;51.364;7.246;2022-08-01T13:44:41;2.20;;;0.70;;
68050;SDS011;54839;51.364;7.246;2022-08-01T13:47:10;2.10;;;1.50;;
68050;SDS011;54839;51.364;7.246;2022-08-01T13:49:35;1.10;;;0.90;;
68050;SDS011;54839;51.364;7.246;2022-08-01T13:52:01;1.13;;;1.03;;
68050;SDS011;54839;51.364;7.246;2022-08-01T13:54:28;1.23;;;1.13;;
68050;SDS011;54839;51.364;7.246;2022-08-01T13:56:56;1.80;;;1.07;;
68050;SDS011;54839;51.364;7.246;2022-08-01T13:59:22;3.20;;;1.60;;
68050;SDS011;54839;51.364;7.246;2022-08-01T14:01:47;4.30;;;1.97;;
68050;SDS011;54839;51.364;7.246;2022-08-01T14:04:13;1.93;;;1.33;;
68050;SDS011;54839;51.364;7.246;2022-08-01T14:06:39;1.63;;;1.47;;
68050;SDS011;54839;51.364;7.246;2022-08-01T14:09:05;1.33;;;0.80;;
68050;SDS011;54839;51.364;7.246;2022-08-01T14:11:31;2.50;;;1.60;;
68050;SDS011;54839;51.364;7.246;2022-08-01T14:13:57;2.13;;;1.40;;
68050;SDS011;54839;51.364;7.246;2022-08-01T14:16:23;1.83;;;1.30;;
68050;SDS011;54839;51.364;7.246;2022-08-01T14:18:52;2.07;;;1.77;;
68050;SDS011;54839;51.364;7.246;2022-08-01T14:21:18;1.87;;;1.77;;
68050;SDS011;54839;51.364;7.246;2022-08-01T14:23:44;2.40;;;2.17;;
68050;SDS011;54839;51.364;7.246;2022-08-01T14:26:09;1.67;;;1.57;;
68050;SDS011;54839;51.364;7.246;2022-08-01T14:28:35;2.30;;;2.07;;
68050;SDS011;54839;51.364;7.246;2022-08-01T14:31:01;1.10;;;1.10;;
68050;SDS011;54839;51.364;7.246;2022-08-01T14:33:28;1.70;;;1.60;;
68050;SDS011;54839;51.364;7.246;2022-08-01T14:35:57;1.60;;;1.50;;
68050;SDS011;54839;51.364;7.246;2022-08-01T14:38:28;2.20;;;1.60;;
68050;SDS011;54839;51.364;7.246;2022-08-01T14:40:53;1.40;;;1.27;;
68050;SDS011;54839;51.364;7.246;2022-08-01T14:43:20;2.33;;;1.50;;
68050;SDS011;54839;51.364;7.246;2022-08-01T14:45:46;2.30;;;2.20;;
68050;SDS011;54839;51.364;7.246;2022-08-01T14:48:15;1.17;;;1.07;;
68050;SDS011;54839;51.364;7.246;2022-08-01T14:50:41;1.80;;;1.30;;
68050;SDS011;54839;51.364;7.246;2022-08-01T14:53:13;6.83;;;6.23;;
68050;SDS011;54839;51.364;7.246;2022-08-01T14:55:39;7.80;;;7.00;;
68050;SDS011;54839;51.364;7.246;2022-08-01T14:58:04;7.80;;;7.00;;
68050;SDS011;54839;51.364;7.246;2022-08-01T15:00:30;3.00;;;2.10;;
68050;SDS011;54839;51.364;7.246;2022-08-01T15:02:59;2.63;;;2.43;;
68050;SDS011;54839;51.364;7.246;2022-08-01T15:05:28;3.27;;;2.40;;
68050;SDS011;54839;51.364;7.246;2022-08-01T15:07:55;2.17;;;1.73;;
68050;SDS011;54839;51.364;7.246;2022-08-01T15:10:21;4.07;;;3.67;;
68050;SDS011;54839;51.364;7.246;2022-08-01T15:12:47;1.80;;;1.70;;
68050;SDS011;54839;51.364;7.246;2022-08-01T15:15:13;1.83;;;1.37;;
68050;SDS011;54839;51.364;7.246;2022-08-01T15:17:38;1.50;;;1.20;;
68050;SDS011;54839;51.364;7.246;2022-08-01T15:20:05;1.60;;;1.50;;
68050;SDS011;54839;51.364;7.246;2022-08-01T15:22:31;2.10;;;1.90;;